Terminal Aerodrome Forecast
Issued by NWS

Home | Current Version | Previous Version | Text Only | Print | Product List | Glossary On
Versions: 1 2 3 4 5 6 7 8 9 10 11 12 13 14 15 16 17 18
000
FTUS44 KLZK 272300
TAFADF
TAF
KADF 272337Z 2800/2824 33004KT P6SM SKC
     FM280200 06003KT P6SM BKN110
     FM280800 12004KT P6SM SCT050 OVC100
     FM281400 12006KT P6SM SCT025 OVC050 PROB30 2814/2820 5SM -SHRA
      BKN025
     FM282100 13005KT P6SM BKN050=

USA.gov is the U.S. government's official web portal to all federal, state and local government web resources and services.